• Join FlightAware (Why Join?)
  • Login
  • US Flag 
Trick or treat! (Boo!!) 
01:48AM EDT


 

Airport Tracker/Info


-or-


 

Live Flight TrackerFlight Track Log ✈ SKW6492 ✈ 05-Jul-2013 ✈ KDEN - KCOD

Flight Track Log - Related Links

Times and Time Zones

All times are in EDT time to prevent confusion due to time zone crossing. See the SKW6492 flight status page for this flight to view local times or setup timezone preferences in your user account.

Time Position Orientation Groundspeed Altitude Reporting Facility
EDT Latitude Longitude Course Direction KTS MPH feet Rate Location/Type
09:37PM 39.9500 -104.6833 346° North 221 254 8,400  Level Denver TRACON
09:38PM 40.0092 -104.6647 14° North 232 267 10,200 1,860 Climbing Denver Center
09:39PM 40.1650 -104.7711 347° North  Level FlightAware Approximate
09:39PM 40.0747 -104.6394 16° North 245 282 12,200  Level Denver Center
09:40PM 40.2708 -104.8029 347° North  Level FlightAware Approximate
09:40PM 40.1644 -104.6556 352° North 277 319 13,900  Level Denver Center
09:41PM 40.3763 -104.8365 346° North  Level FlightAware Approximate
09:41PM 40.2431 -104.6806 346° North 296 341 15,700  Level Denver Center
09:42PM 40.4815 -104.8716 346° North  Level FlightAware Approximate
09:42PM 40.3306 -104.7078 347° North 299 344 17,600  Level Denver Center
09:43PM 40.4164 -104.7339 347° North 318 366 18,800 1,080 Climbing Denver Center
09:44PM 40.5058 -104.7639 346° North 335 386 19,900 1,020 Climbing Denver Center
09:45PM 40.6081 -104.7942 347° North 352 405 21,000 1,020 Climbing Denver Center
09:46PM 40.7036 -104.8261 346° North 357 411 22,000 900 Climbing Denver Center
09:47PM 40.7925 -104.8536 347° North 348 400 22,900 900 Climbing Denver Center
09:48PM 40.8881 -104.8969 341° North 358 412 23,900 1,020 Climbing Denver Center
09:49PM 41.0039 -104.9581 338° Northwest 369 425 25,100 1,020 Climbing Denver Center
09:50PM 41.0886 -105.0319 327° Northwest 371 427 26,100 900 Climbing Denver Center
09:51PM 41.1650 -105.1142 321° Northwest 371 427 27,000 720 Climbing Denver Center
09:53PM 41.2553 -105.2122 321° Northwest 374 430 27,800 660 Climbing Denver Center
09:54PM 41.3464 -105.3119 321° Northwest 379 436 28,600 720 Climbing Denver Center
09:55PM 41.4389 -105.4133 321° Northwest 386 444 29,300 540 Climbing Denver Center
09:56PM 41.5181 -105.4972 322° Northwest 382 440 29,800 480 Climbing Denver Center
09:57PM 41.5972 -105.5889 319° Northwest 389 448 30,300 480 Climbing Denver Center
09:58PM 41.6933 -105.6933 321° Northwest 395 455 30,800 480 Climbing Denver Center
09:59PM 41.7736 -105.7814 321° Northwest 393 452 31,300 480 Climbing Denver Center
10:00PM 41.8569 -105.8739 320° Northwest 402 463 31,800 300 Climbing Denver Center
10:01PM 41.9500 -105.9794 320° Northwest 397 457 32,000 60 Climbing Denver Center
10:02PM 42.0461 -106.0858 321° Northwest 398 458 32,000  Level Denver Center
10:03PM 42.1289 -106.1800 320° Northwest 402 463 32,000  Level Denver Center
10:04PM 42.2161 -106.2783 320° Northwest 422 486 32,000  Level Denver Center
10:05PM 42.3178 -106.3936 320° Northwest 427 491 32,000  Level Denver Center
10:06PM 42.4061 -106.4944 320° Northwest 431 496 32,000  Level Denver Center
10:07PM 42.5106 -106.6117 320° Northwest 435 501 32,000  Level Denver Center
10:08PM 42.5972 -106.7117 320° Northwest 430 495 32,000  Level Denver Center
10:09PM 42.6839 -106.8119 320° Northwest 428 493 32,000  Level Denver Center
10:10PM 42.7858 -106.9292 320° Northwest 428 493 32,000  Level Denver Center
10:11PM 42.8731 -107.0297 320° Northwest 430 495 32,000  Level Denver Center
10:12PM 42.9719 -107.1483 319° Northwest 426 490 32,000  Level Denver Center
10:13PM 43.0550 -107.2436 320° Northwest 425 489 32,000  Level Denver Center
10:14PM 43.1269 -107.3281 319° Northwest 426 490 32,000  Level Denver Center
10:15PM 43.2167 -107.4339 319° Northwest 425 489 32,000  Level Denver Center
10:16PM 43.3242 -107.5617 319° Northwest 427 491 32,000  Level Denver Center
10:17PM 43.4147 -107.6686 319° Northwest 428 493 32,000  Level Denver Center
10:18PM 43.5214 -107.7983 319° Northwest 427 491 32,000 -240 Level Denver Center
10:19PM 43.6122 -107.9050 320° Northwest 428 493 31,600 -1,740 Descending Denver Center
10:21PM 43.7458 -108.0711 318° Northwest 462 532 27,800 -2,940 Descending Salt Lake Center
10:22PM 43.8378 -108.1825 319° Northwest 445 512 24,600 -3,000 Descending Salt Lake Center
10:23PM 43.9253 -108.2889 319° Northwest 421 484 21,800 -2,880 Descending Salt Lake Center
10:24PM 44.0075 -108.3900 319° Northwest 402 463 18,800 -2,640 Descending Salt Lake Center
10:25PM 44.1008 -108.4489 336° Northwest 406 467 16,500 -2,340 Descending Salt Lake Center
10:26PM 44.1842 -108.3586 38° Northeast 392 451 14,100 -2,280 Descending Salt Lake Center
10:27PM 44.2622 -108.2700 39° Northeast 376 433 11,900 -1,920 Descending Salt Lake Center
10:28PM 44.3297 -108.3344 326° Northwest 335 386 10,200 -1,440 Descending Salt Lake Center
10:29PM 44.3586 -108.4353 292° West 301 346 9,000 -600 Descending Salt Lake Center
10:30PM 44.3900 -108.5486 291° West 276 318 9,000  Level Salt Lake Center
10:31PM 44.4344 -108.6308 307° West 271 312 9,000  Level Salt Lake Center
10:32PM 44.4650 -108.7192 296° West 268 308 9,000 240 Level Salt Lake Center
10:33PM 44.4497 -108.8175 258° West 263 303 9,600 480 Climbing Salt Lake Center
10:34PM 44.4297 -108.9147 254° West 261 300 10,000 360 Climbing Salt Lake Center